createdAt,value
2017-07-07T00:00:18.344Z,98.14
2017-07-07T00:01:18.327Z,97.76
2017-07-07T00:02:18.301Z,97.86
2017-07-07T00:03:18.285Z,97.96
2017-07-07T00:04:18.259Z,97.96
2017-07-07T00:05:18.242Z,97.86
2017-07-07T00:06:18.230Z,97.96
2017-07-07T00:07:18.209Z,97.96
2017-07-07T00:08:18.189Z,97.76
2017-07-07T00:09:18.163Z,98.05
2017-07-07T00:10:18.146Z,97.28
2017-07-07T00:11:18.121Z,97.67
2017-07-07T00:12:18.106Z,98.05
2017-07-07T00:13:18.096Z,97.86
2017-07-07T00:14:18.072Z,98.14
2017-07-07T00:15:18.103Z,98.05
2017-07-07T00:16:18.028Z,98.05
2017-07-07T00:17:18.005Z,98.05
2017-07-07T00:18:17.992Z,98.05
2017-07-07T00:19:17.973Z,98.05
2017-07-07T00:20:17.951Z,97.96
2017-07-07T00:21:17.936Z,98.24
2017-07-07T00:22:17.911Z,97.96
2017-07-07T00:23:17.897Z,97.67
2017-07-07T00:24:17.878Z,98.05
2017-07-07T00:25:17.863Z,98.05
2017-07-07T00:26:17.840Z,98.14
2017-07-07T00:27:17.872Z,97.86
2017-07-07T00:28:17.796Z,98
2017-07-07T00:29:17.777Z,97.91
2017-07-07T00:30:17.761Z,98.1
2017-07-07T00:31:17.744Z,97.91
2017-07-07T00:32:17.719Z,97.91
2017-07-07T00:33:17.707Z,97.62
2017-07-07T00:34:17.738Z,98.1
2017-07-07T00:35:17.660Z,98.19
2017-07-07T00:36:17.636Z,97.86
2017-07-07T00:37:17.615Z,97.86
2017-07-07T00:38:17.601Z,97.86
2017-07-07T00:39:17.582Z,98.24
2017-07-07T00:40:17.562Z,98.05
2017-07-07T00:41:17.541Z,97.76
2017-07-07T00:42:17.530Z,97.86
2017-07-07T00:43:17.503Z,97.86
2017-07-07T00:44:17.482Z,97.96
2017-07-07T00:45:17.464Z,97.86
2017-07-07T00:46:17.440Z,97.96
2017-07-07T00:47:17.425Z,97.96
2017-07-07T00:48:17.407Z,97.67
2017-07-07T00:49:17.391Z,98.24
2017-07-07T00:50:17.365Z,98.24
2017-07-07T00:51:17.347Z,97.91
2017-07-07T00:52:17.324Z,98.1
2017-07-07T00:53:17.307Z,98.58
2017-07-07T00:54:17.290Z,98
2017-07-07T00:55:17.273Z,98.39
2017-07-07T00:56:16.939Z,98.19
2017-07-07T00:57:17.232Z,98.48
2017-07-07T00:58:17.209Z,97.52
2017-07-07T00:59:17.188Z,98.29
2017-07-07T01:00:16.863Z,97.91
2017-07-07T01:01:17.154Z,98
2017-07-07T01:02:17.153Z,98.1
2017-07-07T01:03:17.116Z,98.19
2017-07-07T01:04:17.155Z,98.48
2017-07-07T01:05:17.076Z,97.81
2017-07-07T01:06:17.061Z,97.81
2017-07-07T01:07:17.038Z,97.81
2017-07-07T01:08:17.027Z,97.71
2017-07-07T01:09:16.997Z,98.19
2017-07-07T01:10:16.976Z,97.81
2017-07-07T01:11:16.957Z,97.52
2017-07-07T01:12:16.945Z,97.91
2017-07-07T01:13:16.968Z,98.1
2017-07-07T01:14:16.898Z,98.1
2017-07-07T01:15:16.931Z,97.91
2017-07-07T01:16:16.911Z,97.81
2017-07-07T01:17:16.894Z,97.71
2017-07-07T01:18:16.823Z,97.91
2017-07-07T01:19:16.799Z,97.91
2017-07-07T01:20:16.782Z,97.91
2017-07-07T01:21:16.451Z,98.1
2017-07-07T01:22:16.743Z,97.91
2017-07-07T01:23:16.714Z,97.91
2017-07-07T01:24:16.697Z,98.19
2017-07-07T01:25:16.681Z,98.29
2017-07-07T01:26:16.662Z,98.19
2017-07-07T01:27:16.651Z,97.91
2017-07-07T01:28:16.634Z,98.19
2017-07-07T01:29:16.605Z,98.1
2017-07-07T01:30:16.588Z,97.71
2017-07-07T01:31:16.568Z,97.81
2017-07-07T01:32:16.546Z,97.81
2017-07-07T01:33:16.542Z,98.19
2017-07-07T01:34:16.197Z,97.52
2017-07-07T01:35:16.564Z,98.19
2017-07-07T01:36:16.472Z,98
2017-07-07T01:37:16.483Z,98
2017-07-07T01:38:16.536Z,97.24
2017-07-07T01:39:16.419Z,97.24
2017-07-07T01:40:16.103Z,97.62
2017-07-07T01:41:16.367Z,97.62
2017-07-07T01:42:16.349Z,97.62
2017-07-07T01:43:16.330Z,97.62
2017-07-07T01:44:16.309Z,97.33
2017-07-07T01:45:16.292Z,97.24
2017-07-07T01:46:16.268Z,97.24
2017-07-07T01:47:16.251Z,97.04
2017-07-07T01:48:16.231Z,97.14
2017-07-07T01:49:16.206Z,97.24
2017-07-07T01:50:16.250Z,97.52
2017-07-07T01:51:16.184Z,97.62
2017-07-07T01:52:16.153Z,97.42
2017-07-07T01:53:16.251Z,97.42
2017-07-07T01:58:04.982Z,97.71
2017-07-07T01:59:04.955Z,97.24
2017-07-07T02:00:04.994Z,97.14
2017-07-07T02:01:04.903Z,97.33
2017-07-07T02:02:04.580Z,97.24
2017-07-07T02:03:04.869Z,97.14
2017-07-07T02:04:04.849Z,97.14
2017-07-07T02:05:04.830Z,97.33
2017-07-07T02:06:04.814Z,97.52
2017-07-07T02:07:04.800Z,97.33
2017-07-07T02:08:04.773Z,97.04
2017-07-07T02:09:04.957Z,97.24
2017-07-07T02:10:04.732Z,97.24
2017-07-07T02:11:04.715Z,97.57
2017-07-07T02:12:04.936Z,97.24
2017-07-07T02:13:04.665Z,97.42
2017-07-07T02:14:04.659Z,97.33
2017-07-07T02:15:04.633Z,98.19
2017-07-07T02:16:04.308Z,97.42
2017-07-07T02:17:04.594Z,97.91
2017-07-07T02:18:04.574Z,97.91
2017-07-07T02:19:04.565Z,98.1
2017-07-07T02:20:04.534Z,98.14
2017-07-07T02:21:04.515Z,98.24
2017-07-07T02:22:04.498Z,98.1
2017-07-07T02:23:04.477Z,97.57
2017-07-07T02:24:04.455Z,97.86
2017-07-07T02:25:04.433Z,97.86
2017-07-07T02:26:04.418Z,97.57
2017-07-07T02:27:04.395Z,97.76
2017-07-07T02:28:04.378Z,98.34
2017-07-07T02:29:04.358Z,97.96
2017-07-07T02:30:04.335Z,97.96
2017-07-07T02:31:04.314Z,98.24
2017-07-07T02:32:04.303Z,98.24
2017-07-07T02:33:04.282Z,98.34
2017-07-07T02:34:04.264Z,98.34
2017-07-07T02:35:03.936Z,97.66
2017-07-07T02:36:04.219Z,97.96
2017-07-07T02:37:04.200Z,97.76
2017-07-07T02:38:04.179Z,97.76
2017-07-07T02:39:04.159Z,98.34
2017-07-07T02:40:04.138Z,98.34
2017-07-07T02:41:04.120Z,98.14
2017-07-07T02:42:04.113Z,98.77
2017-07-07T02:43:04.079Z,98.63
2017-07-07T02:44:04.072Z,98.86
2017-07-07T02:45:04.065Z,98.77
2017-07-07T02:46:04.025Z,98.72
2017-07-07T02:47:04.004Z,98.48
2017-07-07T02:48:03.984Z,98.63
2017-07-07T02:49:03.973Z,98.43
2017-07-07T02:50:03.947Z,98.63
2017-07-07T02:51:03.922Z,98.82
2017-07-07T02:52:03.907Z,98.63
2017-07-07T02:53:03.891Z,98.68
2017-07-07T02:54:03.866Z,98.63
2017-07-07T02:55:03.851Z,98.68
2017-07-07T02:56:03.832Z,98.43
2017-07-07T02:57:03.809Z,98.43
2017-07-07T02:58:03.782Z,98.86
2017-07-07T02:59:03.774Z,98.77
2017-07-07T03:00:03.751Z,98.77
2017-07-07T03:01:03.727Z,98.86
2017-07-07T03:02:04.014Z,98.39
2017-07-07T03:03:03.697Z,98.86
2017-07-07T03:04:03.667Z,98.86
2017-07-07T03:05:03.654Z,98.86
2017-07-07T03:06:03.632Z,98.68
2017-07-07T03:07:03.612Z,98.77
2017-07-07T03:08:03.587Z,98.86
2017-07-07T03:09:03.578Z,98.86
2017-07-07T03:10:03.556Z,98.48
2017-07-07T03:11:03.536Z,98.19
2017-07-07T03:12:03.524Z,98.29
2017-07-07T03:13:03.492Z,98
2017-07-07T03:14:03.491Z,98.39
2017-07-07T03:15:03.453Z,98.29
2017-07-07T03:16:03.444Z,97.71
2017-07-07T03:17:03.418Z,98.1
2017-07-07T03:18:03.395Z,98.29
2017-07-07T03:19:03.385Z,98.29
2017-07-07T03:20:03.356Z,98
2017-07-07T03:21:03.344Z,97.91
2017-07-07T03:22:03.315Z,98.29
2017-07-07T03:23:03.307Z,98.29
2017-07-07T03:24:03.274Z,98.39
2017-07-07T03:25:03.258Z,98.29
2017-07-07T03:26:03.246Z,98.39
2017-07-07T03:27:03.223Z,98.39
2017-07-07T03:28:03.204Z,98.29
2017-07-07T03:29:03.186Z,98.1
2017-07-07T03:30:03.171Z,98.19
2017-07-07T03:31:03.141Z,98.29
2017-07-07T03:32:03.131Z,98.48
2017-07-07T03:33:03.106Z,98.48
2017-07-07T03:34:03.075Z,98.39
2017-07-07T03:35:03.058Z,98.86
2017-07-07T03:36:03.057Z,98.68
2017-07-07T03:37:03.027Z,98.77
2017-07-07T03:38:02.998Z,98.77
2017-07-07T03:39:02.980Z,98.77
2017-07-07T03:40:02.961Z,98.58
2017-07-07T03:41:02.950Z,98.68
2017-07-07T03:42:02.927Z,98.43
2017-07-07T03:43:02.905Z,98.39
2017-07-07T03:44:02.888Z,98.34
2017-07-07T03:45:03.116Z,99.2
2017-07-07T03:46:02.844Z,99.2
2017-07-07T03:47:02.833Z,99.15
2017-07-07T03:48:02.814Z,98.91
2017-07-07T03:49:02.789Z,98.91
2017-07-07T03:50:02.778Z,98.91
2017-07-07T03:51:02.747Z,98.91
2017-07-07T03:52:02.738Z,98.91
2017-07-07T03:53:02.714Z,99.1
2017-07-07T03:54:02.690Z,99.1
2017-07-07T03:55:02.670Z,98.72
2017-07-07T03:56:02.657Z,99.01
2017-07-07T03:57:02.623Z,99.01
2017-07-07T03:58:02.618Z,99.1
2017-07-07T03:59:02.589Z,99.01
2017-07-07T04:00:02.571Z,99.01
2017-07-07T04:01:02.552Z,99.2
2017-07-07T04:02:02.540Z,99.01
2017-07-07T04:03:02.513Z,98.82
2017-07-07T04:04:02.493Z,98.91
2017-07-07T04:05:02.472Z,99.01
2017-07-07T04:06:02.455Z,99.01
2017-07-07T04:07:02.439Z,99.44
2017-07-07T04:08:02.414Z,98.96
2017-07-07T04:09:02.099Z,98.72
2017-07-07T04:10:02.383Z,98.24
2017-07-07T04:11:02.070Z,98.24
2017-07-07T04:12:02.342Z,98.34
2017-07-07T04:13:02.314Z,98.1
2017-07-07T04:14:02.297Z,98.29
2017-07-07T04:15:02.273Z,98.05
2017-07-07T04:16:02.257Z,98.14
2017-07-07T04:17:02.225Z,98.14
2017-07-07T04:18:02.215Z,98.05
2017-07-07T04:19:02.191Z,97.96
2017-07-07T04:20:02.420Z,98.39
2017-07-07T04:21:02.176Z,98.43
2017-07-07T04:22:02.163Z,97.66
2017-07-07T04:23:02.112Z,97.86
2017-07-07T04:24:02.085Z,97.91
2017-07-07T04:25:01.767Z,97.91
2017-07-07T04:26:02.056Z,97.86
2017-07-07T04:27:02.041Z,97.86
2017-07-07T04:28:02.024Z,97.57
2017-07-07T04:29:01.995Z,97.96
2017-07-07T04:30:01.976Z,97.86
2017-07-07T04:31:01.699Z,97.66
2017-07-07T04:32:01.953Z,98.14
2017-07-07T04:33:01.925Z,98.19
2017-07-07T04:34:01.899Z,98.48
2017-07-07T04:35:01.877Z,98.29
2017-07-07T04:36:01.859Z,98.39
2017-07-07T04:37:01.837Z,98.1
2017-07-07T04:38:01.821Z,98
2017-07-07T04:39:01.806Z,98.19
2017-07-07T04:40:01.778Z,98
2017-07-07T04:41:01.756Z,97.91
2017-07-07T04:42:01.738Z,97.81
2017-07-07T04:43:01.722Z,98.53
2017-07-07T04:44:01.773Z,98.24
2017-07-07T04:45:01.681Z,98.34
2017-07-07T04:46:01.663Z,98
2017-07-07T04:47:01.643Z,98.19
2017-07-07T04:48:01.628Z,97.52
2017-07-07T04:49:01.605Z,97.38
2017-07-07T04:50:01.279Z,97.57
2017-07-07T04:51:01.566Z,97.72
2017-07-07T04:52:01.551Z,97.62
2017-07-07T04:53:01.220Z,96.51
2017-07-07T04:54:01.509Z,96.42
2017-07-07T04:55:01.489Z,95.89
2017-07-07T04:56:01.474Z,95.4
2017-07-07T04:57:01.457Z,95.11
2017-07-07T04:58:01.437Z,93.62
2017-07-07T04:59:01.472Z,93.71
2017-07-07T05:00:01.409Z,93.18
2017-07-07T05:01:01.381Z,92.7
2017-07-07T05:02:01.369Z,92.26
2017-07-07T05:03:01.351Z,91.3
2017-07-07T05:04:01.332Z,90.91
2017-07-07T05:05:01.315Z,90.62
2017-07-07T05:06:01.305Z,90.87
2017-07-07T05:07:01.287Z,90.48
2017-07-07T05:08:01.264Z,90.29
2017-07-07T05:09:01.246Z,89.95
2017-07-07T05:10:01.227Z,89.75
2017-07-07T05:11:01.213Z,89.81
2017-07-07T05:12:01.194Z,89.03
2017-07-07T05:13:01.180Z,89.23
2017-07-07T05:14:01.172Z,89.03
2017-07-07T05:15:01.148Z,88.4
2017-07-07T05:16:01.128Z,87.63
2017-07-07T05:17:00.801Z,87.05
2017-07-07T05:18:01.097Z,85.31
2017-07-07T05:19:00.769Z,85.31
2017-07-07T05:20:01.058Z,85.6
2017-07-07T05:21:01.041Z,84.74
2017-07-07T05:22:01.022Z,85.12
2017-07-07T05:23:01.010Z,84.64
2017-07-07T05:24:00.989Z,84.44
2017-07-07T05:25:01.029Z,84.35
2017-07-07T05:26:00.976Z,84.25
2017-07-07T05:27:00.944Z,84.16
2017-07-07T05:28:00.927Z,83
2017-07-07T05:29:00.910Z,83.44
2017-07-07T05:30:00.891Z,83.44
2017-07-07T05:31:00.929Z,83.25
2017-07-07T05:32:00.860Z,83.63
2017-07-07T05:33:00.896Z,82.96
2017-07-07T05:34:00.824Z,82.9
2017-07-07T05:35:00.875Z,83
2017-07-07T05:36:00.795Z,83.83
2017-07-07T05:37:00.773Z,83.63
2017-07-07T05:38:00.768Z,83.73
2017-07-07T05:39:00.749Z,83.44
2017-07-07T05:40:00.726Z,83.25
2017-07-07T05:41:00.405Z,83.25
2017-07-07T05:42:00.696Z,83.05
2017-07-07T05:43:00.677Z,83.25
2017-07-07T05:44:00.669Z,83.34
2017-07-07T05:45:00.645Z,83.25
2017-07-07T05:46:00.629Z,83.44
2017-07-07T05:47:00.611Z,83.4
2017-07-07T05:48:00.284Z,83.83
2017-07-07T05:49:00.578Z,83.4
2017-07-07T05:50:00.558Z,83.44
2017-07-07T05:51:00.790Z,83.63
2017-07-07T05:52:00.525Z,82.96
2017-07-07T05:53:00.506Z,83.19
2017-07-07T05:54:00.494Z,82.13
2017-07-07T05:55:00.475Z,82.71
2017-07-07T05:56:00.465Z,82.61
2017-07-07T05:57:00.444Z,82.42
2017-07-07T05:58:00.426Z,82.61
2017-07-07T05:59:00.412Z,82.03
2017-07-07T06:00:00.389Z,82.13
2017-07-07T06:01:00.428Z,81.55
2017-07-07T06:02:00.067Z,81.35
2017-07-07T06:03:00.347Z,81.45
2017-07-07T06:04:00.326Z,81.16
2017-07-07T06:05:00.309Z,80.87
2017-07-07T06:06:00.295Z,80.82
2017-07-07T06:07:00.275Z,80.86
2017-07-07T06:08:00.267Z,80.08
2017-07-07T06:09:00.248Z,78.91
2017-07-07T06:10:00.231Z,77.75
2017-07-07T06:11:00.216Z,76.59
2017-07-07T06:12:00.205Z,76.72
2017-07-07T06:13:00.186Z,76.04
2017-07-07T06:14:00.170Z,75.5
2017-07-07T06:14:59.853Z,75.11
2017-07-07T06:16:00.149Z,74.76
2017-07-07T06:17:00.127Z,73.69
2017-07-07T06:18:00.114Z,73.44
2017-07-07T06:19:00.094Z,72.31
2017-07-07T06:20:00.089Z,70.57
2017-07-07T06:21:00.080Z,70.41
2017-07-07T06:22:00.059Z,70.31
2017-07-07T06:23:00.046Z,68.96
2017-07-07T06:24:00.034Z,69.93
2017-07-07T06:25:00.024Z,69.12
2017-07-07T06:26:00.061Z,69.6
2017-07-07T06:26:59.998Z,70.15
2017-07-07T06:27:59.985Z,70.34
2017-07-07T06:28:59.968Z,69.57
2017-07-07T06:29:59.953Z,69.18
2017-07-07T06:30:59.940Z,69.67
2017-07-07T06:31:59.929Z,69.76
2017-07-07T06:33:00.114Z,69.37
2017-07-07T06:33:59.898Z,68.15
2017-07-07T06:34:59.942Z,68.18
2017-07-07T06:35:59.880Z,67.11
2017-07-07T06:36:59.863Z,66.37
2017-07-07T06:37:59.850Z,66.17
2017-07-07T06:38:59.839Z,65.72
2017-07-07T06:39:59.825Z,65.82
2017-07-07T06:40:59.813Z,65.72
2017-07-07T06:41:59.494Z,64.75
2017-07-07T06:42:59.797Z,63.62
2017-07-07T06:43:59.778Z,63.62
2017-07-07T06:44:59.774Z,64.17
2017-07-07T06:45:59.770Z,63.62
2017-07-07T06:46:59.749Z,64.01
2017-07-07T06:47:59.738Z,63.32
2017-07-07T06:48:59.734Z,62.77
2017-07-07T06:49:59.715Z,62.74
2017-07-07T06:50:59.700Z,62.58
2017-07-07T06:51:59.697Z,62.48
2017-07-07T06:52:59.682Z,62.58
2017-07-07T06:53:59.671Z,61.64
2017-07-07T06:54:59.669Z,61.57
2017-07-07T06:55:59.648Z,61.28
2017-07-07T06:56:59.644Z,60.14
2017-07-07T06:57:59.630Z,60.31
2017-07-07T06:58:59.618Z,60.41
2017-07-07T06:59:59.611Z,59.92
2017-07-07T07:00:59.607Z,60.11
2017-07-07T07:01:59.592Z,60.02
2017-07-07T07:02:59.586Z,60.08
2017-07-07T07:03:59.571Z,60.38
2017-07-07T07:04:59.561Z,60.93
2017-07-07T07:05:59.608Z,60.96
2017-07-07T07:06:59.566Z,59.82
2017-07-07T07:07:59.530Z,59.63
2017-07-07T07:08:59.520Z,59.85
2017-07-07T07:09:59.511Z,58.87
2017-07-07T07:10:59.551Z,58.61
2017-07-07T07:11:59.542Z,59.03
2017-07-07T07:12:59.492Z,59.03
2017-07-07T07:13:59.532Z,58.25
2017-07-07T07:14:59.468Z,58.58
2017-07-07T07:15:59.461Z,58.58
2017-07-07T07:16:59.450Z,58.28
2017-07-07T07:17:59.439Z,58.67
2017-07-07T07:18:59.431Z,58.58
2017-07-07T07:19:59.428Z,58.58
2017-07-07T07:20:59.407Z,57.4
2017-07-07T07:21:59.403Z,56.26
2017-07-07T07:22:59.399Z,55.32
2017-07-07T07:23:59.382Z,54.34
2017-07-07T07:24:59.378Z,54.44
2017-07-07T07:25:59.373Z,53.95
2017-07-07T07:26:59.362Z,54.14
2017-07-07T07:27:59.359Z,53.46
2017-07-07T07:28:59.352Z,53.56
2017-07-07T07:29:59.340Z,54.53
2017-07-07T07:30:59.021Z,53.88
2017-07-07T07:31:59.324Z,53.42
2017-07-07T07:32:59.321Z,52.17
2017-07-07T07:33:59.311Z,52.95
2017-07-07T07:34:59.306Z,52.56
2017-07-07T07:35:59.291Z,51.78
2017-07-07T07:36:59.284Z,51.2
2017-07-07T07:37:59.280Z,51.59
2017-07-07T07:38:59.274Z,51.39
2017-07-07T07:39:59.268Z,51.59
2017-07-07T07:40:59.255Z,52.05
2017-07-07T07:41:59.249Z,52.15
2017-07-07T07:42:59.244Z,51.17
2017-07-07T07:43:59.242Z,50.98
2017-07-07T07:44:59.226Z,51.29
2017-07-07T07:45:59.473Z,50.12
2017-07-07T07:46:59.211Z,50.12
2017-07-07T07:47:59.203Z,49.85
2017-07-07T07:48:59.195Z,49.65
2017-07-07T07:49:59.194Z,49.85
2017-07-07T07:50:59.192Z,49.85
2017-07-07T07:51:59.177Z,51.29
2017-07-07T07:52:59.166Z,52.17
2017-07-07T07:53:59.163Z,51.95
2017-07-07T07:54:59.155Z,51.27
2017-07-07T07:55:59.145Z,50.61
2017-07-07T07:56:59.148Z,50.9
2017-07-07T07:57:59.138Z,50.42
2017-07-07T07:58:59.127Z,49.85
2017-07-07T07:59:59.118Z,49.58
2017-07-07T08:00:59.114Z,49.68
2017-07-07T08:01:59.104Z,49.41
2017-07-07T08:02:59.097Z,48.16
2017-07-07T08:03:59.086Z,47.11
2017-07-07T08:04:59.085Z,47.01
2017-07-07T08:05:59.073Z,46.72
2017-07-07T08:06:59.070Z,46.52
2017-07-07T08:07:59.068Z,46.72
2017-07-07T08:08:59.056Z,46.79
2017-07-07T08:09:59.054Z,47.08
2017-07-07T08:10:59.095Z,46.79
2017-07-07T08:11:59.040Z,46.72
2017-07-07T08:12:59.038Z,46.25
2017-07-07T08:13:59.032Z,45.49
2017-07-07T08:14:59.022Z,45
2017-07-07T08:15:59.027Z,45.56
2017-07-07T08:16:59.014Z,45.56
2017-07-07T08:17:59.009Z,46.15
2017-07-07T08:18:59.004Z,46.05
2017-07-07T08:19:59.004Z,46.05
2017-07-07T08:20:59.004Z,45.49
2017-07-07T08:21:58.983Z,45.09
2017-07-07T08:22:58.980Z,45.56
2017-07-07T08:23:58.975Z,44.66
2017-07-07T08:24:58.977Z,45.54
2017-07-07T08:25:58.963Z,45.64
2017-07-07T08:26:58.955Z,45.64
2017-07-07T08:27:58.960Z,45.27
2017-07-07T08:28:58.954Z,44.8
2017-07-07T08:29:58.950Z,45.09
2017-07-07T08:30:58.947Z,44.53
2017-07-07T08:31:58.934Z,43.94
2017-07-07T08:32:58.934Z,43.86
2017-07-07T08:33:58.941Z,43.69
2017-07-07T08:34:58.618Z,43.37
2017-07-07T08:35:58.923Z,43.69
2017-07-07T08:36:58.914Z,43.39
2017-07-07T08:37:58.910Z,43.47
2017-07-07T08:38:58.903Z,43
2017-07-07T08:39:58.895Z,43.1
2017-07-07T08:40:58.946Z,42.11
2017-07-07T08:41:58.892Z,42
2017-07-07T08:42:58.886Z,42.79
2017-07-07T08:43:58.982Z,42.76
2017-07-07T08:44:58.880Z,42.47
2017-07-07T08:45:58.871Z,42.66
2017-07-07T08:46:58.873Z,43.35
2017-07-07T08:47:58.877Z,43.05
2017-07-07T08:48:58.859Z,43.82
2017-07-07T08:49:58.852Z,43.74
2017-07-07T08:50:58.858Z,42.79
2017-07-07T08:51:58.853Z,42.19
2017-07-07T08:52:58.851Z,42
2017-07-07T08:53:58.534Z,42.57
2017-07-07T08:54:58.888Z,42.68
2017-07-07T08:55:58.843Z,43.47
2017-07-07T08:56:58.847Z,42.58
2017-07-07T08:57:58.829Z,42.76
2017-07-07T08:58:58.823Z,42.49
2017-07-07T08:59:58.821Z,42.29
2017-07-07T09:00:58.820Z,42.39
2017-07-07T09:01:58.812Z,42
2017-07-07T09:02:58.498Z,42.45
2017-07-07T09:03:58.807Z,44.09
2017-07-07T09:04:58.800Z,44.66
2017-07-07T09:05:58.790Z,44.46
2017-07-07T09:06:58.795Z,44.56
2017-07-07T09:07:58.786Z,44.95
2017-07-07T09:08:58.782Z,45.05
2017-07-07T09:09:58.788Z,44.29
2017-07-07T09:10:58.818Z,43.8
2017-07-07T09:11:58.759Z,43.6
2017-07-07T09:12:58.762Z,43.41
2017-07-07T09:13:58.762Z,43.41
2017-07-07T09:14:58.756Z,43.51
2017-07-07T09:15:58.749Z,44.56
2017-07-07T09:16:58.741Z,44.85
2017-07-07T09:17:58.785Z,44.66
2017-07-07T09:18:58.780Z,44.76
2017-07-07T09:19:58.721Z,45.13
2017-07-07T09:20:58.718Z,45.23
2017-07-07T09:21:58.715Z,45.91
2017-07-07T09:22:58.709Z,46.01
2017-07-07T09:23:58.711Z,45.62
2017-07-07T09:24:58.700Z,45.42
2017-07-07T09:25:58.697Z,45.23
2017-07-07T09:26:58.691Z,45.98
2017-07-07T09:27:58.681Z,45.98
2017-07-07T09:28:58.679Z,46.37
2017-07-07T09:29:58.670Z,46.26
2017-07-07T09:30:58.665Z,46.65
2017-07-07T09:31:58.661Z,46.72
2017-07-07T09:32:58.659Z,46.92
2017-07-07T09:33:58.648Z,46.8
2017-07-07T09:34:58.639Z,47.38
2017-07-07T09:35:58.632Z,47.97
2017-07-07T09:36:58.621Z,47.97
2017-07-07T09:37:58.617Z,48.34
2017-07-07T09:38:58.610Z,48.44
2017-07-07T09:39:58.706Z,48.65
2017-07-07T09:40:58.598Z,47.8
2017-07-07T09:41:58.581Z,46.94
2017-07-07T09:42:58.583Z,46.84
2017-07-07T09:43:58.577Z,47.26
2017-07-07T09:44:58.575Z,46.28
2017-07-07T09:45:58.610Z,46.4
2017-07-07T09:46:58.554Z,46.01
2017-07-07T09:47:58.552Z,45.54
2017-07-07T09:48:58.587Z,44.19
2017-07-07T09:49:58.533Z,44.29
2017-07-07T09:50:58.526Z,43.8
2017-07-07T09:51:58.530Z,43.6
2017-07-07T09:52:58.519Z,43.7
2017-07-07T09:53:58.510Z,43.6
2017-07-07T09:54:58.501Z,44.17
2017-07-07T09:55:58.496Z,43.58
2017-07-07T09:56:58.537Z,43.31
2017-07-07T09:57:58.491Z,43.9
2017-07-07T09:58:58.488Z,43.6
2017-07-07T09:59:58.469Z,43.6
2017-07-07T10:00:58.466Z,43.04
2017-07-07T10:01:58.472Z,42.84
2017-07-07T10:02:58.457Z,42.27
2017-07-07T10:03:58.459Z,41.8
2017-07-07T10:04:58.452Z,41.82
2017-07-07T10:05:58.443Z,41.71
2017-07-07T10:06:58.438Z,41.8
2017-07-07T10:07:58.437Z,41.78
2017-07-07T10:08:58.426Z,41.68
2017-07-07T10:09:58.417Z,41.86
2017-07-07T10:10:58.419Z,42.52
2017-07-07T10:11:58.564Z,43.38
2017-07-07T10:12:58.404Z,44.34
2017-07-07T10:13:58.401Z,43.93
2017-07-07T10:14:58.438Z,44.81
2017-07-07T10:15:58.395Z,44.98
2017-07-07T10:16:58.370Z,45.76
2017-07-07T10:17:58.371Z,46.06
2017-07-07T10:18:58.361Z,46.53
2017-07-07T10:19:58.355Z,46.36
2017-07-07T10:20:58.345Z,46.36
2017-07-07T10:21:58.387Z,46.16
2017-07-07T10:22:58.328Z,46.16
2017-07-07T10:23:58.319Z,46.36
2017-07-07T10:24:58.011Z,45.89
2017-07-07T10:25:58.311Z,45.13
2017-07-07T10:26:58.298Z,44.83
2017-07-07T10:27:58.394Z,45.23
2017-07-07T10:28:58.292Z,45.79
2017-07-07T10:29:58.289Z,45.69
2017-07-07T10:30:58.328Z,45.81
2017-07-07T10:31:58.271Z,45.52
2017-07-07T10:32:58.260Z,45.23
2017-07-07T10:33:58.353Z,45.42
2017-07-07T10:34:58.301Z,45.62
2017-07-07T10:35:57.932Z,45.79
2017-07-07T10:36:58.238Z,45.79
2017-07-07T10:37:57.915Z,46.55
2017-07-07T10:38:58.274Z,46.43
2017-07-07T10:39:58.207Z,47.02
2017-07-07T10:40:58.199Z,46.72
2017-07-07T10:41:58.196Z,47.19
2017-07-07T10:42:58.204Z,47.28
2017-07-07T10:43:58.173Z,47.67
2017-07-07T10:44:58.170Z,48.07
2017-07-07T10:45:58.167Z,48.83
2017-07-07T10:46:58.149Z,48.83
2017-07-07T10:47:58.153Z,49.41
2017-07-07T10:48:58.139Z,48.54
2017-07-07T10:49:58.136Z,48.83
2017-07-07T10:50:58.129Z,48.93
2017-07-07T10:51:58.107Z,48.54
2017-07-07T10:52:58.102Z,48.05
2017-07-07T10:53:58.087Z,48.26
2017-07-07T10:54:58.078Z,48.26
2017-07-07T10:55:58.070Z,47.87
2017-07-07T10:56:58.067Z,47.02
2017-07-07T10:57:58.053Z,47.21
2017-07-07T10:58:58.052Z,47.21
2017-07-07T10:59:58.033Z,46.84
2017-07-07T11:00:58.080Z,46.45
2017-07-07T11:01:58.054Z,46.16
2017-07-07T11:02:58.016Z,45.79
2017-07-07T11:03:58.067Z,45.69
2017-07-07T11:04:57.997Z,45.52
2017-07-07T11:05:57.992Z,45.23
2017-07-07T11:06:57.989Z,44.34
2017-07-07T11:07:57.975Z,45.62
2017-07-07T11:08:57.964Z,45.69
2017-07-07T11:09:57.955Z,46.16
2017-07-07T11:10:57.954Z,45.97
2017-07-07T11:11:57.948Z,45.86
2017-07-07T11:12:57.988Z,46.06
2017-07-07T11:13:57.618Z,46.06
2017-07-07T11:14:57.924Z,46.62
2017-07-07T11:15:57.922Z,47.58
2017-07-07T11:16:57.911Z,47.95
2017-07-07T11:17:57.901Z,48.54
2017-07-07T11:18:57.578Z,49.22
2017-07-07T11:19:57.879Z,49.51
2017-07-07T11:20:57.871Z,49.71
2017-07-07T11:21:57.864Z,49.8
2017-07-07T11:22:57.949Z,48.83
2017-07-07T11:23:57.845Z,50.26
2017-07-07T11:24:57.833Z,49.8
2017-07-07T11:25:58.129Z,50.1
2017-07-07T11:26:57.516Z,50.1
2017-07-07T11:27:57.799Z,50
2017-07-07T11:28:57.797Z,50.2
2017-07-07T11:29:57.787Z,50.26
2017-07-07T11:30:57.776Z,50.36
2017-07-07T11:31:57.783Z,50.56
2017-07-07T11:32:57.762Z,50.39
2017-07-07T11:33:57.754Z,50.1
2017-07-07T11:34:57.739Z,50.2
2017-07-07T11:35:57.724Z,50.49
2017-07-07T11:36:57.718Z,50.85
2017-07-07T11:37:57.713Z,51.41
2017-07-07T11:38:57.698Z,52.29
2017-07-07T11:39:57.688Z,51.8
2017-07-07T11:40:57.689Z,52.17
2017-07-07T11:41:57.669Z,52.19
2017-07-07T11:42:57.659Z,52.17
2017-07-07T11:43:57.642Z,52.36
2017-07-07T11:44:57.635Z,52.75
2017-07-07T11:45:57.631Z,52.66
2017-07-07T11:46:57.614Z,52.75
2017-07-07T11:47:57.604Z,53.34
2017-07-07T11:48:57.592Z,53.24
2017-07-07T11:49:57.575Z,53.21
2017-07-07T11:50:57.573Z,53.6
2017-07-07T11:51:57.560Z,53.99
2017-07-07T11:52:57.545Z,54.06
2017-07-07T11:53:57.532Z,54.85
2017-07-07T11:54:57.521Z,54.82
2017-07-07T11:55:57.531Z,54.82
2017-07-07T11:56:57.499Z,55.11
2017-07-07T11:57:57.485Z,55.4
2017-07-07T11:58:57.628Z,55.6
2017-07-07T11:59:57.465Z,55.43
2017-07-07T12:00:57.463Z,55.79
2017-07-07T12:01:57.439Z,55.99
2017-07-07T12:02:57.428Z,56.09
2017-07-07T12:03:57.413Z,55.99
2017-07-07T12:04:57.405Z,56.37
2017-07-07T12:05:57.388Z,56.37
2017-07-07T12:06:57.379Z,55.99
2017-07-07T12:07:57.376Z,56.09
2017-07-07T12:08:57.350Z,56.37
2017-07-07T12:09:57.341Z,55.5
2017-07-07T12:10:57.327Z,56.05
2017-07-07T12:11:57.329Z,56.05
2017-07-07T12:12:57.301Z,56.15
2017-07-07T12:13:57.288Z,56.45
2017-07-07T12:14:57.274Z,57.03
2017-07-07T12:15:57.260Z,57.39
2017-07-07T12:16:57.254Z,57.68
2017-07-07T12:17:57.235Z,58.07
2017-07-07T12:18:57.226Z,58.26
2017-07-07T12:19:57.207Z,58.65
2017-07-07T12:20:57.193Z,58.65
2017-07-07T12:21:57.179Z,58.07
2017-07-07T12:22:57.167Z,57.87
2017-07-07T12:23:57.156Z,57.61
2017-07-07T12:24:56.832Z,57.54
2017-07-07T12:25:57.184Z,57.54
2017-07-07T12:26:57.119Z,56.7
2017-07-07T12:27:57.107Z,56.11
2017-07-07T12:28:57.236Z,56.01
2017-07-07T12:29:57.091Z,55.52
2017-07-07T12:30:57.062Z,55.65
2017-07-07T12:31:57.046Z,55.16
2017-07-07T12:32:57.035Z,54.87
2017-07-07T12:33:57.072Z,54.87
2017-07-07T12:34:57.009Z,54.77
2017-07-07T12:35:56.995Z,55.19
2017-07-07T12:36:56.983Z,54.41
2017-07-07T12:37:56.969Z,54.41
2017-07-07T12:38:56.958Z,54.11
2017-07-07T12:39:56.943Z,54.21
2017-07-07T12:40:56.931Z,53.92
2017-07-07T12:41:56.969Z,54.11
2017-07-07T12:42:56.909Z,53.92
2017-07-07T12:43:56.902Z,54.02
2017-07-07T12:44:56.880Z,53.83
2017-07-07T12:45:56.919Z,53.44
2017-07-07T12:46:56.858Z,53.53
2017-07-07T12:47:56.844Z,53.63
2017-07-07T12:48:56.830Z,53.85
2017-07-07T12:49:56.510Z,53.85
2017-07-07T12:50:56.908Z,53.95
2017-07-07T12:51:56.796Z,53.27
2017-07-07T12:52:56.783Z,53.09
2017-07-07T12:53:56.780Z,52.02
2017-07-07T12:54:56.756Z,52.12
2017-07-07T12:55:56.743Z,51.63
2017-07-07T12:56:56.737Z,51.63
2017-07-07T12:57:56.724Z,51.63
2017-07-07T12:58:56.713Z,51.34
2017-07-07T12:59:56.703Z,50.95